Time;durP1;ratioP1;P1;durP2;ratioP2;P2;SDS_P1;SDS_P2;PMS_P1;PMS_P2;Temp;Humidity;BMP_temperature;BMP_pressure;BME280_temperature;BME280_humidity;BME280_pressure;Samples;Min_cycle;Max_cycle;Signal;HPM_P1;HPM_P2
2023/03/03 00:01:03;;;;;;;34.63;13.00;;;5.10;80.90;;;;;;4974843;28;92784;-72
2023/03/03 00:03:29;;;;;;;37.83;13.32;;;5.10;81.40;;;;;;4964130;28;92872;-72
2023/03/03 00:05:54;;;;;;;35.53;13.25;;;5.00;81.70;;;;;;4972412;28;93022;-71
2023/03/03 00:08:21;;;;;;;38.33;12.55;;;5.00;81.60;;;;;;4976455;28;92390;-71
2023/03/03 00:10:47;;;;;;;31.85;12.65;;;5.00;81.70;;;;;;4984214;28;92508;-69
2023/03/03 00:13:22;;;;;;;36.90;13.23;;;4.90;82.00;;;;;;4977008;28;92333;-72
2023/03/03 00:15:48;;;;;;;37.42;13.25;;;4.90;82.20;;;;;;4973796;28;93724;-72
2023/03/03 00:18:26;;;;;;;35.97;13.25;;;4.90;82.10;;;;;;4978105;28;93874;-72
2023/03/03 00:20:54;;;;;;;34.33;12.38;;;4.90;82.30;;;;;;4993157;28;92254;-72
2023/03/03 00:23:30;;;;;;;30.63;11.48;;;4.90;82.10;;;;;;4986937;28;92413;-71
2023/03/03 00:25:57;;;;;;;35.08;12.13;;;4.90;82.30;;;;;;4978428;28;92687;-71
2023/03/03 00:28:31;;;;;;;36.10;12.77;;;4.80;82.40;;;;;;4975550;28;93508;-71
2023/03/03 00:30:59;;;;;;;34.60;12.15;;;4.80;82.50;;;;;;4973483;28;92541;-73
2023/03/03 00:33:27;;;;;;;31.00;10.55;;;4.70;82.60;;;;;;4962018;28;91313;-73
2023/03/03 00:35:54;;;;;;;36.40;12.20;;;4.70;83.10;;;;;;4973633;28;93278;-71
2023/03/03 00:38:19;;;;;;;33.50;11.80;;;4.70;83.00;;;;;;4977860;28;93098;-72
2023/03/03 00:40:46;;;;;;;35.10;11.43;;;4.70;82.80;;;;;;4974352;28;93450;-72
2023/03/03 00:43:22;;;;;;;34.38;12.15;;;4.70;82.60;;;;;;4973823;28;94175;-71
2023/03/03 00:45:50;;;;;;;32.22;11.20;;;4.70;82.50;;;;;;4974069;28;93177;-71
2023/03/03 00:48:22;;;;;;;35.55;12.55;;;4.60;82.60;;;;;;4972648;28;92464;-72
2023/03/03 00:50:48;;;;;;;29.42;10.85;;;4.50;83.10;;;;;;4981595;28;92419;-71
2023/03/03 00:53:18;;;;;;;33.38;11.73;;;4.50;83.20;;;;;;4984891;28;92433;-72
2023/03/03 00:55:46;;;;;;;31.20;11.65;;;4.50;83.10;;;;;;4974244;28;93466;-71
2023/03/03 00:58:12;;;;;;;30.88;11.52;;;4.40;83.00;;;;;;4974481;28;92793;-71
2023/03/03 01:00:39;;;;;;;33.00;11.27;;;4.40;83.00;;;;;;4984543;28;92594;-73
2023/03/03 01:03:08;;;;;;;28.38;10.98;;;4.40;83.10;;;;;;4968359;28;92510;-71
2023/03/03 01:05:35;;;;;;;31.92;10.77;;;4.40;83.00;;;;;;4970349;28;94776;-71
2023/03/03 01:08:02;;;;;;;33.72;11.50;;;4.40;83.10;;;;;;4974199;28;93382;-72
2023/03/03 01:10:31;;;;;;;35.15;12.68;;;4.30;83.50;;;;;;4974064;28;92382;-71
2023/03/03 01:12:57;;;;;;;34.17;12.15;;;4.20;84.00;;;;;;4978452;28;92268;-71
2023/03/03 01:15:23;;;;;;;37.78;12.52;;;4.30;84.10;;;;;;4988764;28;93189;-71
2023/03/03 01:17:49;;;;;;;39.38;13.05;;;4.30;83.80;;;;;;4977176;28;94628;-72
2023/03/03 01:20:15;;;;;;;37.22;12.98;;;4.40;83.50;;;;;;4977614;28;92425;-72
2023/03/03 01:22:41;;;;;;;33.90;10.95;;;4.40;83.40;;;;;;4977115;28;93207;-71
2023/03/03 01:25:07;;;;;;;37.20;13.13;;;4.50;83.70;;;;;;4976040;28;94116;-71
2023/03/03 01:27:34;;;;;;;42.38;13.68;;;4.50;83.80;;;;;;4968669;28;92389;-72
2023/03/03 01:30:01;;;;;;;38.13;13.70;;;4.50;83.60;;;;;;4975132;28;93521;-72
2023/03/03 01:32:27;;;;;;;37.38;13.85;;;4.50;83.40;;;;;;4977363;28;92305;-72
2023/03/03 01:34:53;;;;;;;38.10;13.63;;;4.50;83.40;;;;;;4986862;28;94078;-71
2023/03/03 01:37:19;;;;;;;40.22;13.32;;;4.50;83.70;;;;;;4976911;28;92870;-72
2023/03/03 01:39:54;;;;;;;39.80;13.35;;;4.60;83.50;;;;;;4978141;28;92219;-71
2023/03/03 01:42:21;;;;;;;36.45;13.77;;;4.50;83.80;;;;;;4976633;28;92411;-71
2023/03/03 01:44:47;;;;;;;38.85;13.00;;;4.50;83.70;;;;;;4982859;28;92662;-70
2023/03/03 01:47:26;;;;;;;37.90;13.57;;;4.50;83.40;;;;;;4976209;28;92579;-74
2023/03/03 01:50:08;;;;;;;38.67;13.50;;;4.60;83.60;;;;;;4967991;28;92629;-73
2023/03/03 01:52:46;;;;;;;39.80;14.30;;;4.60;83.40;;;;;;4986409;28;92508;-72
2023/03/03 01:55:19;;;;;;;37.67;13.13;;;4.60;83.10;;;;;;4979465;28;94374;-72
2023/03/03 01:57:51;;;;;;;36.72;13.52;;;4.60;83.00;;;;;;4976924;28;93933;-72
2023/03/03 02:00:17;;;;;;;37.05;13.35;;;4.60;82.80;;;;;;4976807;28;92502;-71
2023/03/03 02:02:44;;;;;;;36.47;13.45;;;4.60;83.00;;;;;;4980578;28;92715;-73
2023/03/03 02:05:11;;;;;;;42.72;13.82;;;4.60;83.50;;;;;;4978918;28;94056;-71
2023/03/03 02:07:37;;;;;;;39.83;14.23;;;4.60;83.20;;;;;;4976518;28;92177;-72
2023/03/03 02:10:11;;;;;;;38.45;14.05;;;4.50;83.20;;;;;;4977327;28;92400;-71
2023/03/03 02:12:44;;;;;;;39.28;13.18;;;4.60;83.20;;;;;;4975161;28;91521;-71
2023/03/03 02:15:25;;;;;;;41.92;13.95;;;4.70;83.20;;;;;;4975333;28;93401;-71
2023/03/03 02:17:56;;;;;;;33.40;13.15;;;4.70;83.10;;;;;;4976495;28;92368;-73
2023/03/03 02:20:51;;;;;;;35.22;13.40;;;4.70;83.10;;;;;;4976125;28;93271;-72
2023/03/03 02:23:25;;;;;;;42.50;13.10;;;4.70;83.10;;;;;;4963123;28;92311;-71
2023/03/03 02:25:56;;;;;;;38.47;13.90;;;4.70;83.30;;;;;;4976665;28;92746;-71
2023/03/03 02:28:25;;;;;;;40.60;13.18;;;4.70;83.50;;;;;;4976283;28;92877;-71
2023/03/03 02:30:54;;;;;;;36.88;13.82;;;4.70;83.40;;;;;;4976247;28;92560;-72
2023/03/03 02:33:21;;;;;;;37.15;13.93;;;4.80;83.10;;;;;;4981799;28;92505;-73
2023/03/03 02:35:47;;;;;;;40.30;14.35;;;4.80;82.80;;;;;;4973937;28;93202;-73
2023/03/03 02:38:37;;;;;;;37.85;13.52;;;4.80;82.60;;;;;;4963661;28;92972;-72
2023/03/03 02:41:08;;;;;;;;;;;4.70;83.20;;;;;;4978961;28;92543;-71
2023/03/03 02:43:43;;;;;;;39.55;13.55;;;4.70;84.20;;;;;;4987680;28;92299;-72
2023/03/03 02:46:09;;;;;;;36.10;13.50;;;4.70;83.50;;;;;;4974928;28;94129;-72
2023/03/03 02:48:34;;;;;;;34.88;13.60;;;4.70;83.40;;;;;;4976787;28;94065;-73
2023/03/03 02:51:00;;;;;;;37.50;14.05;;;4.80;83.10;;;;;;4974921;28;92577;-71
2023/03/03 02:53:26;;;;;;;39.83;13.50;;;4.90;83.00;;;;;;4985024;28;92327;-72
2023/03/03 02:55:51;;;;;;;41.83;14.88;;;4.90;82.80;;;;;;4974111;28;93305;-72
2023/03/03 02:58:17;;;;;;;35.85;13.35;;;4.80;83.10;;;;;;4975081;28;93028;-72
2023/03/03 03:00:43;;;;;;;37.90;13.60;;;4.70;83.20;;;;;;4973092;28;92483;-71
2023/03/03 03:03:09;;;;;;;37.45;14.32;;;4.80;83.40;;;;;;4975252;28;91811;-71
2023/03/03 03:05:34;;;;;;;35.22;13.40;;;4.80;83.10;;;;;;4976823;28;92856;-69
2023/03/03 03:08:00;;;;;;;35.72;13.40;;;4.90;83.30;;;;;;4995183;28;92954;-73
2023/03/03 03:10:25;;;;;;;34.97;13.07;;;4.90;83.20;;;;;;4972165;28;93492;-71
2023/03/03 03:12:51;;;;;;;37.75;13.20;;;4.90;82.60;;;;;;4976231;28;92355;-72
2023/03/03 03:15:17;;;;;;;35.88;13.00;;;5.00;82.60;;;;;;4974829;28;94086;-70
2023/03/03 03:17:43;;;;;;;34.65;12.73;;;5.00;82.80;;;;;;4983710;28;92832;-72
2023/03/03 03:20:09;;;;;;;34.53;13.60;;;5.00;82.90;;;;;;4978573;28;92375;-70
2023/03/03 03:22:34;;;;;;;35.58;13.10;;;4.90;83.10;;;;;;4975306;28;92227;-70
2023/03/03 03:25:00;;;;;;;38.75;13.10;;;5.00;83.20;;;;;;4975248;28;94469;-70
2023/03/03 03:27:26;;;;;;;38.13;13.40;;;4.90;83.20;;;;;;4975708;28;93363;-71
2023/03/03 03:29:52;;;;;;;37.35;12.40;;;5.00;83.00;;;;;;4973531;28;92370;-72
2023/03/03 03:32:17;;;;;;;38.75;13.38;;;5.00;82.70;;;;;;4976124;28;92618;-71
2023/03/03 03:34:43;;;;;;;37.15;13.43;;;5.00;82.90;;;;;;4974769;28;95044;-70
2023/03/03 03:37:09;;;;;;;34.58;12.95;;;4.90;83.10;;;;;;4975203;28;93329;-71
2023/03/03 03:39:35;;;;;;;38.05;13.45;;;4.90;83.20;;;;;;4977255;28;92685;-71
2023/03/03 03:42:01;;;;;;;36.53;13.70;;;4.90;83.40;;;;;;4995124;28;92534;-72
2023/03/03 03:44:27;;;;;;;36.47;13.00;;;4.90;83.50;;;;;;4988089;28;94610;-71
2023/03/03 03:46:52;;;;;;;39.28;13.20;;;4.90;83.70;;;;;;4973960;28;92821;-72
2023/03/03 03:49:18;;;;;;;39.42;13.32;;;4.90;83.10;;;;;;4972698;28;93186;-71
2023/03/03 03:51:44;;;;;;;32.50;11.85;;;4.90;82.80;;;;;;4983188;28;91787;-72
2023/03/03 03:54:09;;;;;;;30.65;11.80;;;4.80;82.80;;;;;;4992231;28;93887;-71
2023/03/03 03:56:35;;;;;;;31.80;12.18;;;4.70;83.20;;;;;;4982842;28;92806;-72
2023/03/03 03:59:00;;;;;;;31.55;11.45;;;4.60;83.80;;;;;;4973006;28;93289;-71
2023/03/03 04:01:27;;;;;;;31.20;11.43;;;4.50;84.10;;;;;;4985425;28;92427;-71
2023/03/03 04:03:52;;;;;;;28.67;11.20;;;4.40;84.50;;;;;;4972653;28;93330;-72
2023/03/03 04:06:18;;;;;;;32.28;12.30;;;4.30;85.20;;;;;;4974044;28;92679;-72
2023/03/03 04:08:44;;;;;;;33.53;12.10;;;4.40;84.70;;;;;;4971209;28;92594;-72
2023/03/03 04:11:09;;;;;;;32.40;11.77;;;4.50;84.40;;;;;;4975155;28;92770;-70
2023/03/03 04:13:35;;;;;;;32.15;11.35;;;4.60;84.10;;;;;;4974201;28;92738;-70
2023/03/03 04:16:02;;;;;;;33.53;11.98;;;4.60;83.80;;;;;;4975030;28;92857;-70
2023/03/03 04:18:27;;;;;;;33.53;12.50;;;4.70;83.60;;;;;;4974150;28;92645;-70
2023/03/03 04:20:54;;;;;;;33.50;12.30;;;4.60;83.70;;;;;;4990561;28;92350;-69
2023/03/03 04:23:20;;;;;;;32.90;11.65;;;4.70;83.40;;;;;;4983163;28;93592;-71
2023/03/03 04:25:46;;;;;;;31.75;11.43;;;4.70;83.30;;;;;;4982286;28;94047;-70
2023/03/03 04:28:13;;;;;;;31.40;11.43;;;4.60;83.40;;;;;;4970058;28;92543;-71
2023/03/03 04:30:39;;;;;;;32.30;12.00;;;4.70;83.40;;;;;;4972605;28;92923;-71
2023/03/03 04:33:05;;;;;;;34.05;11.73;;;4.80;83.30;;;;;;4987943;28;93168;-71
2023/03/03 04:35:31;;;;;;;35.45;12.38;;;4.80;83.50;;;;;;4973546;28;93427;-70
2023/03/03 04:37:57;;;;;;;30.98;11.57;;;4.80;83.60;;;;;;4971518;28;92487;-73
2023/03/03 04:40:23;;;;;;;40.95;13.07;;;4.80;83.80;;;;;;4978124;28;91870;-71
2023/03/03 04:42:49;;;;;;;33.05;12.50;;;4.80;84.10;;;;;;4970465;28;94215;-73
2023/03/03 04:45:14;;;;;;;37.15;12.93;;;4.80;84.00;;;;;;4982257;28;93039;-70
2023/03/03 04:47:40;;;;;;;38.42;13.48;;;4.80;83.60;;;;;;4960123;28;95004;-72
2023/03/03 04:50:08;;;;;;;32.50;12.68;;;4.90;83.50;;;;;;4968271;28;92412;-72
2023/03/03 04:52:34;;;;;;;38.95;13.38;;;4.90;83.00;;;;;;4973009;28;92763;-70
2023/03/03 04:54:59;;;;;;;37.78;13.65;;;4.80;83.10;;;;;;4972711;28;92540;-71
2023/03/03 04:57:25;;;;;;;40.38;14.60;;;4.90;83.50;;;;;;4995500;28;92409;-70
2023/03/03 04:59:51;;;;;;;34.30;13.80;;;4.80;83.90;;;;;;4969833;28;92577;-71
2023/03/03 05:02:16;;;;;;;42.60;14.20;;;4.80;84.10;;;;;;4975109;28;94019;-71
2023/03/03 05:04:43;;;;;;;34.75;12.50;;;4.80;83.80;;;;;;4977270;28;92361;-71
2023/03/03 05:07:08;;;;;;;33.15;13.30;;;4.80;83.90;;;;;;4981993;28;92565;-70
2023/03/03 05:09:34;;;;;;;42.00;13.85;;;4.80;83.60;;;;;;4994862;28;92619;-72
2023/03/03 05:12:00;;;;;;;35.47;13.40;;;4.80;83.80;;;;;;4994790;28;94669;-71
2023/03/03 05:14:26;;;;;;;36.38;12.27;;;4.90;83.70;;;;;;4981468;28;93838;-71
2023/03/03 05:16:52;;;;;;;32.03;11.32;;;4.90;82.80;;;;;;4979265;28;92529;-71
2023/03/03 05:19:17;;;;;;;28.60;11.05;;;4.80;83.00;;;;;;4977974;28;92722;-71
2023/03/03 05:21:43;;;;;;;31.55;11.20;;;4.80;82.70;;;;;;4981228;28;93254;-70
2023/03/03 05:24:11;;;;;;;30.17;11.60;;;4.80;82.40;;;;;;4997045;28;92461;-72
2023/03/03 05:26:37;;;;;;;29.30;10.45;;;4.80;82.50;;;;;;4995915;28;92609;-71
2023/03/03 05:29:03;;;;;;;29.02;10.27;;;4.80;82.90;;;;;;4987926;28;91749;-71
2023/03/03 05:31:29;;;;;;;32.20;10.93;;;4.80;82.80;;;;;;4978883;28;93416;-71
2023/03/03 05:33:55;;;;;;;29.05;10.80;;;4.90;82.60;;;;;;4977869;28;93358;-72
2023/03/03 05:36:20;;;;;;;25.95;10.48;;;4.90;82.40;;;;;;4976672;28;93478;-71
2023/03/03 05:38:46;;;;;;;25.98;10.20;;;4.90;82.20;;;;;;4977257;28;92586;-71
2023/03/03 05:41:12;;;;;;;29.00;9.80;;;4.90;82.30;;;;;;4983268;28;93483;-71
2023/03/03 05:43:37;;;;;;;29.67;10.65;;;4.80;82.30;;;;;;4996064;28;92477;-70
2023/03/03 05:46:03;;;;;;;28.60;10.60;;;4.80;82.50;;;;;;4978924;28;92365;-71
2023/03/03 05:48:29;;;;;;;28.67;10.75;;;4.90;82.40;;;;;;4979240;28;92439;-72
2023/03/03 05:50:58;;;;;;;31.92;11.73;;;4.80;82.20;;;;;;4970752;28;93918;-71
2023/03/03 05:53:24;;;;;;;27.48;10.10;;;4.90;82.20;;;;;;4982269;28;92947;-72
2023/03/03 05:55:50;;;;;;;32.78;10.90;;;4.90;82.20;;;;;;4996751;28;92070;-71
2023/03/03 05:58:15;;;;;;;27.42;10.35;;;4.80;82.50;;;;;;4980746;28;92727;-71
2023/03/03 06:00:41;;;;;;;35.65;12.07;;;4.90;82.50;;;;;;4976384;28;94162;-72
2023/03/03 06:03:07;;;;;;;30.58;10.52;;;5.00;82.10;;;;;;4975897;28;94336;-71
2023/03/03 06:05:32;;;;;;;29.63;10.63;;;5.00;81.90;;;;;;4987982;28;92897;-71
2023/03/03 06:07:58;;;;;;;30.45;10.50;;;5.00;82.30;;;;;;4976419;28;92548;-72
2023/03/03 06:10:24;;;;;;;31.08;11.15;;;5.00;82.30;;;;;;4986419;28;93007;-71
2023/03/03 06:12:51;;;;;;;30.63;11.45;;;5.00;82.10;;;;;;4974129;28;92933;-71
2023/03/03 06:15:16;;;;;;;31.52;11.02;;;4.90;82.50;;;;;;4976076;28;92269;-71
2023/03/03 06:17:42;;;;;;;31.45;11.63;;;5.00;82.20;;;;;;4987615;28;92245;-71
2023/03/03 06:20:09;;;;;;;30.75;11.57;;;5.00;81.50;;;;;;4975477;28;93776;-71
2023/03/03 06:22:34;;;;;;;30.33;10.98;;;5.10;81.50;;;;;;4968665;28;93230;-71
2023/03/03 06:25:00;;;;;;;32.42;10.57;;;5.10;82.10;;;;;;4978106;28;93642;-73
2023/03/03 06:27:26;;;;;;;29.10;11.18;;;5.10;82.00;;;;;;4974381;28;93346;-72
2023/03/03 06:29:51;;;;;;;31.23;11.00;;;5.20;81.80;;;;;;4980892;28;93159;-71
2023/03/03 06:32:17;;;;;;;32.55;11.43;;;5.20;81.50;;;;;;4973409;28;93452;-71
2023/03/03 06:34:43;;;;;;;31.40;11.75;;;5.20;81.50;;;;;;4974147;28;93801;-71
2023/03/03 06:37:09;;;;;;;35.08;11.60;;;5.30;81.50;;;;;;4969423;28;92643;-71
2023/03/03 06:39:34;;;;;;;30.38;11.23;;;5.30;81.00;;;;;;4970036;28;92418;-72
2023/03/03 06:42:00;;;;;;;31.50;12.07;;;5.30;81.50;;;;;;4975561;28;92369;-71
2023/03/03 06:44:26;;;;;;;36.95;12.35;;;5.40;81.50;;;;;;4971401;28;92669;-71
2023/03/03 06:46:52;;;;;;;30.13;12.10;;;5.40;81.00;;;;;;4973715;28;94343;-71
2023/03/03 06:49:18;;;;;;;30.98;11.70;;;5.50;80.80;;;;;;4980185;28;94044;-72
2023/03/03 06:51:45;;;;;;;36.95;13.57;;;5.50;80.80;;;;;;4962852;28;95448;-73
2023/03/03 06:54:19;;;;;;;33.38;12.13;;;5.50;80.30;;;;;;4970260;28;92836;-71
2023/03/03 06:56:46;;;;;;;30.17;11.80;;;5.50;80.50;;;;;;4961606;28;93020;-72
2023/03/03 06:59:18;;;;;;;30.08;12.05;;;5.40;80.60;;;;;;4973294;28;94032;-71
2023/03/03 07:01:46;;;;;;;31.08;11.85;;;5.40;80.40;;;;;;4977763;28;93524;-70
2023/03/03 07:04:18;;;;;;;29.83;11.95;;;5.50;80.30;;;;;;4971609;28;94593;-71
2023/03/03 07:06:44;;;;;;;40.10;13.88;;;5.50;80.10;;;;;;4972878;28;91982;-74
2023/03/03 07:09:22;;;;;;;37.22;13.63;;;5.60;79.70;;;;;;4969191;28;93057;-71
2023/03/03 07:11:49;;;;;;;32.95;12.43;;;5.70;80.10;;;;;;4971239;28;93380;-70
2023/03/03 07:14:18;;;;;;;33.85;12.25;;;5.80;80.00;;;;;;4968192;28;93427;-71
2023/03/03 07:16:44;;;;;;;39.63;13.30;;;5.90;80.00;;;;;;4974403;28;92580;-71
2023/03/03 07:19:29;;;;;;;30.23;12.27;;;6.00;79.80;;;;;;4963556;28;93112;-72
2023/03/03 07:21:54;;;;;;;34.47;12.60;;;6.00;79.20;;;;;;4964153;28;92448;-72
2023/03/03 07:24:30;;;;;;;33.30;13.32;;;6.00;79.70;;;;;;4971261;28;92755;-72
2023/03/03 07:27:08;;;;;;;36.28;12.23;;;6.10;79.30;;;;;;4971023;28;92710;-74
2023/03/03 07:29:36;;;;;;;42.67;14.63;;;6.20;79.10;;;;;;4964006;28;93665;-75
2023/03/03 07:32:04;;;;;;;41.15;15.15;;;6.20;78.60;;;;;;4965672;28;93426;-71
2023/03/03 07:34:38;;;;;;;43.33;15.40;;;6.20;78.70;;;;;;4954751;28;93961;-72
2023/03/03 07:37:37;;;;;;;41.95;15.25;;;6.20;77.10;;;;;;4967581;28;92605;-71
2023/03/03 07:40:28;;;;;;;38.05;15.18;;;6.20;77.10;;;;;;4964747;28;94226;-72
2023/03/03 07:42:53;;;;;;;42.72;16.08;;;6.30;76.90;;;;;;4965594;28;93289;-72
2023/03/03 07:45:26;;;;;;;43.30;15.50;;;6.30;76.80;;;;;;4972494;28;92613;-71
2023/03/03 07:47:59;;;;;;;37.75;14.93;;;6.30;77.20;;;;;;4972895;28;94637;-72
2023/03/03 07:50:26;;;;;;;36.30;14.77;;;6.40;77.80;;;;;;4960135;28;94480;-71
2023/03/03 07:52:59;;;;;;;36.15;14.35;;;6.50;76.30;;;;;;4967300;28;92421;-71
2023/03/03 07:55:31;;;;;;;38.72;14.70;;;6.50;76.30;;;;;;4967534;28;93118;-72
2023/03/03 07:58:16;;;;;;;39.60;15.85;;;6.50;76.40;;;;;;4967975;28;91530;-72
2023/03/03 08:00:41;;;;;;;35.72;14.63;;;6.70;75.70;;;;;;4961382;28;92319;-72
2023/03/03 08:03:21;;;;;;;36.15;14.32;;;6.70;74.90;;;;;;4961689;28;93419;-72
2023/03/03 08:05:48;;;;;;;38.78;14.60;;;6.60;75.00;;;;;;4957339;28;93587;-71
2023/03/03 08:08:41;;;;;;;41.92;14.73;;;6.60;75.30;;;;;;4970101;28;92504;-71
2023/03/03 08:11:08;;;;;;;38.20;14.45;;;6.70;76.00;;;;;;4969507;28;94359;-72
2023/03/03 08:13:34;;;;;;;40.70;14.73;;;6.80;75.30;;;;;;4974258;28;93139;-72
2023/03/03 08:16:08;;;;;;;42.63;14.65;;;6.80;75.40;;;;;;4970214;28;92503;-72
2023/03/03 08:18:52;;;;;;;35.13;14.05;;;6.90;75.00;;;;;;4974136;28;92493;-71
2023/03/03 08:21:20;;;;;;;41.00;14.32;;;7.00;74.70;;;;;;4970250;28;94224;-72
2023/03/03 08:23:48;;;;;;;39.58;14.30;;;7.10;73.60;;;;;;4972823;28;92497;-72
2023/03/03 08:26:13;;;;;;;39.70;15.00;;;7.10;74.10;;;;;;4966065;28;92783;-71
2023/03/03 08:28:39;;;;;;;35.80;14.32;;;7.20;73.60;;;;;;4965533;28;92430;-71
2023/03/03 08:31:05;;;;;;;35.00;14.15;;;7.20;73.30;;;;;;4960135;28;94577;-75
2023/03/03 08:33:31;;;;;;;38.88;14.77;;;7.10;72.90;;;;;;4968049;28;94831;-73
2023/03/03 08:35:56;;;;;;;37.70;15.93;;;7.10;73.80;;;;;;4967046;28;92116;-71
2023/03/03 08:38:22;;;;;;;37.63;14.75;;;7.20;73.60;;;;;;4972946;28;92430;-71
2023/03/03 08:40:48;;;;;;;38.10;15.63;;;7.40;72.50;;;;;;4975821;28;92648;-71
2023/03/03 08:43:17;;;;;;;52.25;15.77;;;7.50;72.10;;;;;;4971420;28;93475;-72
2023/03/03 08:45:45;;;;;;;36.47;15.27;;;7.60;71.90;;;;;;4967711;28;93098;-71
2023/03/03 08:48:11;;;;;;;39.85;16.02;;;7.60;71.40;;;;;;4964798;28;91692;-72
2023/03/03 08:50:37;;;;;;;37.05;14.63;;;7.40;72.10;;;;;;4962113;28;93194;-72
2023/03/03 08:53:03;;;;;;;47.13;16.60;;;7.40;72.40;;;;;;4965284;28;92840;-73
2023/03/03 08:55:29;;;;;;;41.00;15.90;;;7.50;72.00;;;;;;4971050;28;93488;-70
2023/03/03 08:57:55;;;;;;;41.63;15.18;;;7.50;71.80;;;;;;4965032;28;92600;-73
2023/03/03 09:00:21;;;;;;;38.38;14.88;;;7.50;71.90;;;;;;4967395;28;93281;-69
2023/03/03 09:02:49;;;;;;;37.25;15.18;;;7.50;72.10;;;;;;4970049;28;94195;-73
2023/03/03 09:05:16;;;;;;;41.08;16.45;;;7.60;72.10;;;;;;4967177;28;94463;-72
2023/03/03 09:07:43;;;;;;;40.30;15.10;;;7.60;71.40;;;;;;4968410;28;93050;-71
2023/03/03 09:10:12;;;;;;;43.72;16.33;;;7.70;71.40;;;;;;4980199;28;93858;-70
2023/03/03 09:12:40;;;;;;;40.97;15.40;;;7.70;71.10;;;;;;4980355;28;93025;-72
2023/03/03 09:15:20;;;;;;;38.08;15.18;;;7.60;71.40;;;;;;4974370;28;92551;-72
2023/03/03 09:17:46;;;;;;;47.15;15.93;;;7.70;71.60;;;;;;4961458;28;92494;-72
2023/03/03 09:20:29;;;;;;;41.90;15.95;;;7.80;72.30;;;;;;4972456;28;94384;-72
2023/03/03 09:22:54;;;;;;;37.45;15.77;;;8.00;71.30;;;;;;4970975;28;93385;-71
2023/03/03 09:25:36;;;;;;;39.10;15.23;;;8.00;71.10;;;;;;4968638;28;92697;-71
2023/03/03 09:28:02;;;;;;;39.65;16.02;;;8.00;71.00;;;;;;4970212;28;92612;-74
2023/03/03 09:30:36;;;;;;;39.30;15.13;;;8.00;70.90;;;;;;4973226;28;92606;-72
2023/03/03 09:33:16;;;;;;;42.42;15.95;;;7.80;71.40;;;;;;4971012;28;93367;-71
2023/03/03 09:35:41;;;;;;;42.05;16.67;;;7.70;72.40;;;;;;4973815;28;92363;-71
2023/03/03 09:38:32;;;;;;;41.45;16.98;;;7.60;73.90;;;;;;4973423;28;91724;-71
2023/03/03 09:41:06;;;;;;;43.55;18.08;;;7.50;74.30;;;;;;4971925;28;93526;-72
2023/03/03 09:43:50;;;;;;;39.58;17.02;;;7.50;74.80;;;;;;4973595;28;92559;-72
2023/03/03 09:46:39;;;;;;;42.75;15.82;;;7.40;73.60;;;;;;4969539;28;93545;-75
2023/03/03 09:49:33;;;;;;;43.72;16.58;;;7.30;74.30;;;;;;4973165;28;92344;-75
2023/03/03 09:52:25;;;;;;;41.55;16.40;;;7.30;74.80;;;;;;4973916;28;93280;-71
2023/03/03 09:54:50;;;;;;;44.30;16.55;;;7.50;73.90;;;;;;4972140;28;93275;-72
2023/03/03 09:57:28;;;;;;;39.08;16.17;;;7.60;73.50;;;;;;4974166;28;92451;-71
2023/03/03 10:00:22;;;;;;;39.67;16.10;;;7.70;74.20;;;;;;4969185;28;93153;-71
2023/03/03 10:03:07;;;;;;;39.45;16.35;;;8.00;72.50;;;;;;4974857;28;93231;-71
2023/03/03 10:05:50;;;;;;;41.58;16.15;;;7.90;73.00;;;;;;4968607;28;93101;-77
2023/03/03 10:08:36;;;;;;;42.30;16.48;;;8.00;71.90;;;;;;4969638;28;92644;-73
2023/03/03 10:11:20;;;;;;;47.80;17.83;;;8.10;72.00;;;;;;4966757;28;93968;-71
2023/03/03 10:14:24;;;;;;;40.78;16.45;;;8.30;72.80;;;;;;4967151;28;94615;-72
2023/03/03 10:17:07;;;;;;;38.35;15.93;;;8.50;71.00;;;;;;4933206;28;93501;-73
2023/03/03 10:19:45;;;;;;;41.00;17.77;;;8.60;70.90;;;;;;4931639;28;92655;-72
2023/03/03 10:22:26;;;;;;;37.22;16.55;;;8.70;71.40;;;;;;4945909;28;93256;-72
2023/03/03 10:25:03;;;;;;;40.63;16.17;;;8.80;70.50;;;;;;4963692;28;92790;-72
2023/03/03 10:27:55;;;;;;;40.63;16.50;;;8.80;70.50;;;;;;4968252;28;93521;-72
2023/03/03 10:30:41;;;;;;;40.47;17.48;;;8.80;70.00;;;;;;4969153;28;92420;-72
2023/03/03 10:33:47;;;;;;;38.63;17.30;;;8.80;69.60;;;;;;4971941;28;91692;-71
2023/03/03 10:36:37;;;;;;;43.15;16.52;;;8.80;70.60;;;;;;4967513;28;94339;-73
2023/03/03 10:39:11;;;;;;;40.92;17.13;;;8.80;71.40;;;;;;4974300;28;94200;-71
2023/03/03 10:41:45;;;;;;;43.78;17.95;;;9.00;70.90;;;;;;4961935;28;93560;-75
2023/03/03 10:44:29;;;;;;;41.67;16.92;;;9.20;69.50;;;;;;4966281;28;92650;-71
2023/03/03 10:47:25;;;;;;;42.30;17.40;;;9.30;69.50;;;;;;4964095;28;93215;-73
2023/03/03 10:50:24;;;;;;;44.30;17.58;;;9.30;69.70;;;;;;4956179;28;92863;-71
2023/03/03 10:53:11;;;;;;;41.38;16.98;;;9.40;69.40;;;;;;4965381;28;92563;-71
2023/03/03 10:55:39;;;;;;;44.35;18.05;;;9.20;69.80;;;;;;4967155;28;93773;-72
2023/03/03 10:58:25;;;;;;;40.55;17.63;;;9.40;69.50;;;;;;4967941;28;93694;-72
2023/03/03 11:01:27;;;;;;;45.25;18.00;;;9.40;68.20;;;;;;4963375;28;92844;-71
2023/03/03 11:04:02;;;;;;;42.97;17.15;;;9.50;69.20;;;;;;4970564;28;92264;-72
2023/03/03 11:07:07;;;;;;;41.42;16.85;;;9.60;68.80;;;;;;4971113;28;93668;-72
2023/03/03 11:09:54;;;;;;;37.05;15.63;;;9.50;69.30;;;;;;4966346;28;93766;-72
2023/03/03 11:12:31;;;;;;;39.25;17.08;;;9.70;68.80;;;;;;4965710;28;93251;-75
2023/03/03 11:15:08;;;;;;;35.38;15.75;;;9.70;68.40;;;;;;4972041;28;94455;-72
2023/03/03 11:17:53;;;;;;;37.88;16.35;;;9.90;67.70;;;;;;4964003;28;92902;-71
2023/03/03 11:20:25;;;;;;;36.83;16.15;;;10.10;67.60;;;;;;4978860;28;93173;-71
2023/03/03 11:23:14;;;;;;;37.38;16.90;;;10.20;65.60;;;;;;4960427;28;94307;-71
2023/03/03 11:25:49;;;;;;;45.13;19.27;;;10.30;64.50;;;;;;4949846;28;93597;-73
2023/03/03 11:28:29;;;;;;;37.88;16.58;;;10.30;66.90;;;;;;4965055;28;92259;-72
2023/03/03 11:31:24;;;;;;;40.28;16.75;;;10.40;66.90;;;;;;4966877;28;92819;-73
2023/03/03 11:34:20;;;;;;;42.80;16.63;;;10.40;66.40;;;;;;4953318;28;94019;-70
2023/03/03 11:36:54;;;;;;;40.33;16.40;;;10.40;66.80;;;;;;4958327;28;93610;-71
2023/03/03 11:39:26;;;;;;;39.65;16.63;;;10.50;65.20;;;;;;4962595;28;93136;-73
2023/03/03 11:42:10;;;;;;;40.90;17.15;;;10.60;65.90;;;;;;4964701;28;93269;-72
2023/03/03 11:44:48;;;;;;;41.30;17.90;;;10.70;66.60;;;;;;4959326;28;94314;-74
2023/03/03 11:47:26;;;;;;;40.15;17.15;;;10.70;65.50;;;;;;4969130;28;94903;-72
2023/03/03 11:50:19;;;;;;;43.65;18.48;;;10.70;65.00;;;;;;4967172;28;92398;-71
2023/03/03 11:53:20;;;;;;;42.35;18.00;;;10.70;66.10;;;;;;4961875;28;93304;-72
2023/03/03 11:55:53;;;;;;;40.72;17.35;;;10.70;66.10;;;;;;4969934;28;92953;-69
2023/03/03 11:58:29;;;;;;;40.72;17.05;;;10.90;64.10;;;;;;4961065;28;92456;-74
2023/03/03 12:01:04;;;;;;;36.55;16.02;;;10.90;64.30;;;;;;4967469;28;93499;-70
2023/03/03 12:03:38;;;;;;;41.60;17.30;;;11.10;63.20;;;;;;4964764;28;95120;-73
2023/03/03 12:06:22;;;;;;;36.00;15.45;;;11.00;63.30;;;;;;4963427;28;93479;-73
2023/03/03 12:08:50;;;;;;;42.38;16.95;;;11.20;65.30;;;;;;4960111;28;92604;-69
2023/03/03 12:11:37;;;;;;;38.17;16.73;;;11.20;63.50;;;;;;4967453;28;92431;-71
2023/03/03 12:14:24;;;;;;;36.13;16.02;;;11.30;64.80;;;;;;4970201;28;93330;-75
2023/03/03 12:17:00;;;;;;;39.92;17.35;;;11.40;63.60;;;;;;4958106;28;94185;-70
2023/03/03 12:19:25;;;;;;;38.97;16.42;;;11.50;62.50;;;;;;4970418;28;93949;-75
2023/03/03 12:22:24;;;;;;;39.45;16.73;;;11.40;63.60;;;;;;4966599;28;91917;-72
2023/03/03 12:25:36;;;;;;;39.25;17.27;;;11.40;63.70;;;;;;4970548;28;93011;-70
2023/03/03 12:28:18;;;;;;;40.33;17.55;;;11.10;65.30;;;;;;4969922;28;94333;-70
2023/03/03 12:31:12;;;;;;;44.22;18.70;;;10.90;64.30;;;;;;4972460;28;95130;-71
2023/03/03 12:34:05;;;;;;;46.17;18.70;;;10.80;64.60;;;;;;4960847;28;93716;-70
2023/03/03 12:36:33;;;;;;;44.03;17.55;;;10.80;64.90;;;;;;4965602;28;93231;-77
2023/03/03 12:39:37;;;;;;;45.88;18.33;;;10.60;64.70;;;;;;4963994;28;94155;-72
2023/03/03 12:42:14;;;;;;;39.25;16.55;;;10.40;66.50;;;;;;4967648;28;93934;-72
2023/03/03 12:44:58;;;;;;;43.72;18.40;;;10.40;66.60;;;;;;4973883;28;92516;-71
2023/03/03 12:47:45;;;;;;;42.95;18.40;;;10.50;66.50;;;;;;4972002;28;92749;-73
2023/03/03 12:50:14;;;;;;;41.58;16.90;;;10.40;66.40;;;;;;4979792;28;93091;-71
2023/03/03 12:52:56;;;;;;;41.00;17.55;;;10.40;66.80;;;;;;4970576;28;92613;-73
2023/03/03 12:55:49;;;;;;;35.45;15.77;;;10.40;66.60;;;;;;4973052;28;92401;-72
2023/03/03 12:58:33;;;;;;;41.78;17.23;;;10.20;65.70;;;;;;4963374;28;94556;-72
2023/03/03 13:01:17;;;;;;;37.38;16.00;;;10.30;67.30;;;;;;4969250;28;94520;-76